Time;durP1;ratioP1;P1;durP2;ratioP2;P2;SDS_P1;SDS_P2;PMS_P1;PMS_P2;Temp;Humidity;BMP_temperature;BMP_pressure;BME280_temperature;BME280_humidity;BME280_pressure;Samples;Min_cycle;Max_cycle;Signal;HPM_P1;HPM_P2
2023/01/05 00:00:34;;;;;;;18.23;3.80;;;9.40;1.00;;;;;;5069610;28;20188;-81
2023/01/05 00:02:59;;;;;;;13.73;3.50;;;9.40;1.00;;;;;;5069470;28;20196;-79
2023/01/05 00:05:25;;;;;;;8.53;2.37;;;9.30;1.00;;;;;;5069075;28;20193;-80
2023/01/05 00:07:50;;;;;;;8.47;1.73;;;9.30;1.00;;;;;;5067528;28;20213;-82
2023/01/05 00:24:01;;;;;;;7.90;2.07;;;9.00;1.00;;;;;;5067060;28;20188;-82
2023/01/05 00:26:26;;;;;;;6.20;1.53;;;9.00;99.90;;;;;;5065344;28;20205;-80
2023/01/05 00:28:52;;;;;;;4.37;1.40;;;9.00;99.90;;;;;;5066551;28;20189;-80
2023/01/05 00:31:17;;;;;;;8.40;2.00;;;9.00;99.90;;;;;;5066664;28;20193;-83
2023/01/05 00:33:43;;;;;;;3.83;1.23;;;9.00;99.90;;;;;;5066520;28;20181;-80
2023/01/05 00:36:09;;;;;;;4.40;1.60;;;9.00;99.90;;;;;;5066246;28;20246;-81
2023/01/05 00:38:34;;;;;;;4.57;1.53;;;9.20;99.90;;;;;;5067100;28;20206;-82
2023/01/05 00:41:00;;;;;;;4.93;1.40;;;9.00;1.00;;;;;;5066863;28;20204;-80
2023/01/05 00:43:26;;;;;;;11.00;2.47;;;9.00;1.00;;;;;;5064559;28;20255;-80
2023/01/05 00:45:51;;;;;;;9.13;2.03;;;9.00;1.00;;;;;;5071208;28;20188;-80
2023/01/05 00:48:17;;;;;;;8.60;2.20;;;10.90;1.00;;;;;;5073585;28;20201;-79
2023/01/05 00:50:42;;;;;;;12.97;2.90;;;9.00;1.00;;;;;;5073862;28;20185;-79
2023/01/05 00:53:08;;;;;;;8.17;2.30;;;9.00;1.00;;;;;;5073113;28;20189;-79
2023/01/05 00:55:33;;;;;;;8.57;2.17;;;9.00;1.00;;;;;;5090954;28;20230;-79
2023/01/05 00:57:59;;;;;;;8.67;2.30;;;10.30;6.00;;;;;;5072649;28;20590;-79
2023/01/05 01:00:25;;;;;;;10.83;2.33;;;9.00;1.00;;;;;;5075466;28;20185;-79
2023/01/05 01:02:53;;;;;;;5.87;1.90;;;9.00;1.00;;;;;;5074655;28;20186;-79
2023/01/05 01:05:19;;;;;;;6.70;1.87;;;9.00;1.00;;;;;;5075645;28;20235;-80
2023/01/05 01:07:46;;;;;;;5.53;1.53;;;10.20;1.00;;;;;;5092304;28;20206;-79
2023/01/05 01:10:11;;;;;;;7.90;1.60;;;10.00;1.00;;;;;;5074647;28;20706;-79
2023/01/05 01:12:37;;;;;;;4.57;1.77;;;8.80;99.90;;;;;;5078608;28;20201;-80
2023/01/05 01:15:03;;;;;;;5.20;1.90;;;9.10;99.90;;;;;;5080705;28;20185;-80
2023/01/05 01:17:31;;;;;;;8.27;2.27;;;9.10;99.90;;;;;;5081997;28;20209;-79
2023/01/05 01:19:56;;;;;;;11.40;3.07;;;8.90;33.80;;;;;;5080899;28;20188;-79
2023/01/05 01:22:22;;;;;;;7.80;2.20;;;9.10;1.00;;;;;;5081986;28;20244;-79
2023/01/05 01:24:47;;;;;;;7.93;2.40;;;9.30;1.00;;;;;;5078786;28;20196;-80
2023/01/05 01:27:13;;;;;;;9.30;2.60;;;9.20;1.00;;;;;;5079169;28;20209;-81
2023/01/05 01:29:39;;;;;;;9.77;2.20;;;9.30;1.00;;;;;;5074939;28;20207;-80
2023/01/05 01:32:04;;;;;;;9.13;2.20;;;9.30;1.00;;;;;;5077298;28;20190;-80
2023/01/05 01:34:30;;;;;;;8.00;2.60;;;8.80;1.00;;;;;;5076314;28;20694;-80
2023/01/05 01:36:56;;;;;;;11.80;2.60;;;9.30;1.00;;;;;;5076090;28;20202;-81
2023/01/05 01:39:21;;;;;;;8.60;2.07;;;9.20;1.00;;;;;;5075195;28;20186;-80
2023/01/05 01:41:47;;;;;;;7.60;2.00;;;11.60;1.00;;;;;;5077769;28;20185;-80
2023/01/05 01:44:58;;;;;;;9.07;2.17;;;11.50;1.00;;;;;;5077123;28;20186;-80
2023/01/05 01:47:29;;;;;;;17.50;2.53;;;9.30;1.00;;;;;;5069854;28;20217;-81
2023/01/05 01:49:57;;;;;;;10.30;2.30;;;9.20;1.00;;;;;;5071577;28;20194;-81
2023/01/05 01:52:26;;;;;;;8.13;2.47;;;9.20;99.90;;;;;;5072342;28;20643;-80
2023/01/05 01:54:52;;;;;;;8.40;2.67;;;9.30;99.90;;;;;;5069642;28;20185;-81
2023/01/05 01:57:17;;;;;;;7.97;2.00;;;9.20;99.90;;;;;;5069109;28;20236;-80
2023/01/05 01:59:43;;;;;;;7.00;2.17;;;9.20;1.00;;;;;;5069116;28;20209;-80
2023/01/05 02:02:11;;;;;;;6.77;2.30;;;9.20;99.90;;;;;;5069314;28;20238;-81
2023/01/05 02:04:37;;;;;;;10.07;2.53;;;9.10;99.90;;;;;;5070486;28;20174;-80
2023/01/05 02:07:04;;;;;;;9.27;2.50;;;9.10;99.90;;;;;;5069674;28;20201;-81
2023/01/05 02:09:30;;;;;;;9.47;2.97;;;9.50;99.90;;;;;;5068210;28;20185;-81
2023/01/05 02:12:15;;;;;;;8.93;2.37;;;9.20;99.90;;;;;;5068091;28;20646;-81
2023/01/05 02:15:15;;;;;;;8.33;2.27;;;9.20;99.90;;;;;;5069452;28;20192;-81
2023/01/05 02:18:19;;;;;;;9.77;1.90;;;9.30;99.90;;;;;;5067958;28;20227;-80
2023/01/05 02:20:55;;;;;;;7.63;2.30;;;9.30;99.90;;;;;;5068429;28;20768;-80
2023/01/05 02:23:42;;;;;;;7.53;1.90;;;9.30;99.90;;;;;;5066501;28;20260;-80
2023/01/05 02:26:45;;;;;;;10.67;2.20;;;9.30;99.90;;;;;;5065570;28;20244;-80
2023/01/05 02:29:32;;;;;;;10.40;1.93;;;9.40;99.90;;;;;;5063355;28;20189;-80
2023/01/05 02:32:06;;;;;;;11.47;3.27;;;9.40;99.90;;;;;;5063129;28;20186;-81
2023/01/05 02:35:08;;;;;;;12.73;4.10;;;9.40;99.90;;;;;;5063718;28;20194;-81
2023/01/05 02:37:40;;;;;;;11.00;3.43;;;9.50;99.90;;;;;;5079624;28;20220;-81
2023/01/05 02:40:14;;;;;;;11.43;3.23;;;9.50;99.90;;;;;;5066763;28;20280;-81
2023/01/05 02:42:42;;;;;;;11.83;4.10;;;9.50;99.90;;;;;;5065171;28;20199;-81
2023/01/05 02:45:08;;;;;;;11.17;3.13;;;9.60;99.90;;;;;;5068230;28;20188;-80
2023/01/05 02:47:42;;;;;;;9.70;2.77;;;9.60;99.90;;;;;;5068390;28;20209;-82
2023/01/05 02:50:16;;;;;;;9.03;2.70;;;9.80;99.90;;;;;;5066987;28;20196;-81
2023/01/05 02:52:58;;;;;;;8.73;2.40;;;9.50;99.90;;;;;;5067688;28;20189;-80
2023/01/05 02:55:32;;;;;;;12.23;3.20;;;9.40;99.90;;;;;;5068190;28;20181;-80
2023/01/05 02:58:05;;;;;;;14.20;3.53;;;9.50;99.90;;;;;;5067890;28;20299;-81
2023/01/05 03:00:39;;;;;;;9.57;2.63;;;9.50;99.90;;;;;;5066850;28;20238;-80
2023/01/05 03:03:24;;;;;;;13.30;3.23;;;9.40;99.90;;;;;;5068068;28;20185;-81
2023/01/05 03:05:57;;;;;;;11.47;3.00;;;9.50;99.90;;;;;;5066879;28;20181;-79
2023/01/05 03:08:25;;;;;;;9.03;3.07;;;9.40;99.90;;;;;;5068048;28;20189;-81
2023/01/05 03:14:24;;;;;;;11.40;2.57;;;9.30;99.90;;;;;;5072873;28;20238;-81
2023/01/05 03:16:52;;;;;;;9.83;2.50;;;9.30;99.90;;;;;;5071677;28;20213;-81
2023/01/05 03:19:35;;;;;;;12.13;3.40;;;9.30;99.90;;;;;;5085850;28;20191;-81
2023/01/05 03:36:03;;;;;;;13.17;3.57;;;9.20;99.90;;;;;;5066219;28;20665;-80
2023/01/05 03:38:35;;;;;;;10.40;2.43;;;9.20;99.90;;;;;;5066989;28;20209;-80
2023/01/05 03:41:04;;;;;;;7.97;2.77;;;10.30;1.00;;;;;;5067551;28;20659;-79
2023/01/05 03:43:34;;;;;;;7.03;2.40;;;9.10;1.00;;;;;;5066621;28;20343;-81
2023/01/05 03:46:00;;;;;;;8.80;2.57;;;9.00;1.00;;;;;;5067079;28;20721;-80
2023/01/05 03:48:27;;;;;;;10.20;3.00;;;9.00;1.00;;;;;;5065531;28;20312;-80
2023/01/05 03:50:53;;;;;;;11.23;2.93;;;11.40;1.00;;;;;;5066651;28;20363;-81
2023/01/05 03:53:19;;;;;;;11.83;2.67;;;9.00;1.00;;;;;;5067526;28;20330;-80
2023/01/05 03:55:44;;;;;;;10.27;2.90;;;9.00;1.00;;;;;;5068889;28;20185;-79
2023/01/05 03:58:10;;;;;;;10.80;2.47;;;9.00;1.00;;;;;;5068103;28;20221;-80
2023/01/05 04:00:36;;;;;;;11.80;3.37;;;9.00;1.00;;;;;;5067935;28;20193;-80
2023/01/05 04:03:01;;;;;;;13.17;2.60;;;8.80;1.00;;;;;;5067605;28;20268;-79
2023/01/05 04:05:27;;;;;;;14.73;2.43;;;8.20;1.00;;;;;;5068984;28;20182;-80
2023/01/05 04:07:52;;;;;;;12.63;2.87;;;9.00;1.00;;;;;;5066845;28;20201;-80
2023/01/05 04:10:18;;;;;;;14.37;2.83;;;9.00;1.00;;;;;;5067138;28;20207;-80
2023/01/05 04:12:45;;;;;;;9.43;3.00;;;9.00;1.00;;;;;;5066790;28;20201;-81
2023/01/05 04:15:11;;;;;;;10.53;2.80;;;9.00;1.00;;;;;;5065654;28;20204;-79
2023/01/05 04:17:36;;;;;;;10.87;2.80;;;9.10;1.00;;;;;;5066898;28;20206;-81
2023/01/05 04:20:04;;;;;;;12.13;2.80;;;9.10;1.00;;;;;;5066074;28;20187;-80
2023/01/05 04:22:30;;;;;;;10.03;3.13;;;9.10;1.00;;;;;;5066332;28;20185;-80
2023/01/05 04:24:56;;;;;;;12.57;2.73;;;9.00;1.00;;;;;;5066590;28;20185;-80
2023/01/05 04:27:22;;;;;;;13.30;3.37;;;9.00;1.00;;;;;;5066308;28;20216;-79
2023/01/05 04:29:47;;;;;;;15.93;3.10;;;8.90;1.00;;;;;;5065640;28;20182;-81
2023/01/05 04:32:13;;;;;;;10.47;2.60;;;9.00;1.00;;;;;;5065874;28;20280;-81
2023/01/05 04:34:38;;;;;;;14.03;2.73;;;9.00;1.00;;;;;;5063811;28;20189;-81
2023/01/05 04:37:04;;;;;;;12.40;3.17;;;9.00;1.00;;;;;;5063181;28;20213;-79
2023/01/05 04:39:29;;;;;;;13.60;2.70;;;8.80;1.00;;;;;;5067127;28;20182;-80
2023/01/05 04:41:55;;;;;;;13.07;3.47;;;9.00;1.00;;;;;;5066260;28;20217;-80
2023/01/05 04:44:20;;;;;;;12.63;2.93;;;10.50;1.00;;;;;;5065132;28;20214;-80
2023/01/05 04:46:46;;;;;;;13.00;3.23;;;9.10;99.90;;;;;;5068990;28;20212;-80
2023/01/05 04:49:12;;;;;;;13.87;3.40;;;9.10;99.90;;;;;;5069097;28;20602;-80
2023/01/05 04:51:37;;;;;;;13.80;2.80;;;10.60;99.90;;;;;;5070030;28;20687;-81
2023/01/05 04:54:03;;;;;;;10.10;2.40;;;9.10;99.90;;;;;;5071085;28;20190;-81
2023/01/05 04:56:28;;;;;;;12.03;3.63;;;9.10;99.90;;;;;;5068912;28;20209;-80
2023/01/05 04:58:54;;;;;;;13.07;3.50;;;9.10;99.90;;;;;;5068736;28;20282;-79
2023/01/05 05:01:19;;;;;;;9.93;2.90;;;9.10;99.90;;;;;;5069337;28;20272;-80
2023/01/05 05:03:45;;;;;;;13.77;3.47;;;9.10;99.90;;;;;;5068967;28;20182;-79
2023/01/05 05:06:11;;;;;;;12.90;2.70;;;9.10;99.90;;;;;;5068445;28;20189;-80
2023/01/05 05:08:36;;;;;;;9.73;3.03;;;9.00;99.90;;;;;;5069382;28;20185;-80
2023/01/05 05:11:02;;;;;;;12.23;2.77;;;9.30;99.90;;;;;;5070830;28;20545;-80
2023/01/05 05:13:28;;;;;;;11.10;3.13;;;9.00;99.90;;;;;;5070466;28;20250;-80
2023/01/05 05:15:53;;;;;;;12.73;2.77;;;9.00;99.90;;;;;;5070944;28;20209;-80
2023/01/05 05:18:20;;;;;;;11.60;2.70;;;9.00;99.90;;;;;;5070039;28;20705;-80
2023/01/05 05:20:49;;;;;;;10.57;2.87;;;9.00;99.90;;;;;;5069736;28;20200;-80
2023/01/05 05:23:14;;;;;;;8.57;2.50;;;9.10;99.90;;;;;;5066852;28;20217;-81
2023/01/05 05:25:40;;;;;;;10.93;2.80;;;9.00;99.90;;;;;;5068249;28;20666;-79
2023/01/05 05:28:05;;;;;;;13.07;2.70;;;7.90;1.00;;;;;;5068834;28;20215;-80
2023/01/05 05:30:31;;;;;;;12.13;3.20;;;8.90;1.00;;;;;;5069163;28;20177;-81
2023/01/05 05:32:57;;;;;;;11.80;2.67;;;9.00;1.00;;;;;;5068381;28;20638;-80
2023/01/05 05:35:22;;;;;;;12.50;3.37;;;8.90;1.00;;;;;;5065520;28;20190;-81
2023/01/05 05:37:48;;;;;;;10.53;2.93;;;8.90;1.00;;;;;;5071389;28;20224;-80
2023/01/05 05:40:13;;;;;;;12.60;3.00;;;8.90;1.00;;;;;;5070699;28;20182;-80
2023/01/05 05:42:39;;;;;;;9.90;2.77;;;8.80;1.00;;;;;;5067209;28;20653;-80
2023/01/05 05:45:05;;;;;;;12.07;3.07;;;8.80;1.00;;;;;;5071066;28;20189;-81
2023/01/05 05:47:31;;;;;;;16.30;3.00;;;8.80;1.00;;;;;;5070960;28;20201;-80
2023/01/05 05:49:57;;;;;;;12.13;2.93;;;;;;;;;;5070834;28;20290;-80
2023/01/05 05:52:22;;;;;;;10.27;3.13;;;8.70;1.00;;;;;;5072958;28;20234;-81
2023/01/05 05:54:48;;;;;;;11.63;3.13;;;8.70;1.00;;;;;;5071200;28;20241;-81
2023/01/05 05:57:14;;;;;;;8.10;3.03;;;8.70;52.90;;;;;;5069613;28;20229;-81
2023/01/05 05:59:39;;;;;;;10.77;3.60;;;8.80;34.50;;;;;;5072481;28;20177;-80
2023/01/05 06:02:05;;;;;;;9.63;2.77;;;8.70;99.90;;;;;;5070436;28;20193;-80
2023/01/05 06:04:30;;;;;;;11.87;2.77;;;8.70;99.90;;;;;;5070117;28;20178;-80
2023/01/05 06:06:56;;;;;;;12.23;3.40;;;8.70;99.90;;;;;;5069341;28;20275;-81
2023/01/05 06:09:21;;;;;;;7.67;2.27;;;8.70;99.90;;;;;;5070553;28;20581;-81
2023/01/05 06:11:47;;;;;;;8.57;2.63;;;8.70;13.50;;;;;;5069421;28;20200;-81
2023/01/05 06:14:12;;;;;;;10.67;2.70;;;8.70;6.70;;;;;;5070429;28;20185;-80
2023/01/05 06:16:38;;;;;;;10.00;2.93;;;8.70;18.90;;;;;;5073279;28;21222;-82
2023/01/05 06:19:03;;;;;;;8.83;2.40;;;8.60;1.00;;;;;;5071360;28;20185;-79
2023/01/05 06:21:29;;;;;;;8.60;2.20;;;8.70;1.00;;;;;;5065947;28;20186;-80
2023/01/05 06:23:55;;;;;;;11.97;2.83;;;8.60;1.00;;;;;;5066059;28;20823;-79
2023/01/05 06:26:20;;;;;;;10.27;2.70;;;8.60;1.00;;;;;;5067376;28;20701;-80
2023/01/05 06:28:46;;;;;;;10.90;2.43;;;8.70;1.00;;;;;;5067856;28;20211;-79
2023/01/05 06:31:11;;;;;;;10.17;2.70;;;8.70;1.00;;;;;;5067642;28;20298;-79
2023/01/05 06:33:37;;;;;;;10.97;2.50;;;8.60;1.00;;;;;;5068365;28;20203;-80
2023/01/05 06:36:03;;;;;;;7.93;2.17;;;8.70;1.00;;;;;;5067617;28;20178;-80
2023/01/05 06:38:29;;;;;;;9.70;2.50;;;8.70;1.00;;;;;;5067264;28;20481;-80
2023/01/05 06:40:54;;;;;;;10.00;2.37;;;8.70;1.00;;;;;;5069454;28;20180;-80
2023/01/05 06:43:20;;;;;;;13.27;2.70;;;8.80;1.00;;;;;;5065550;28;20711;-80
2023/01/05 06:45:46;;;;;;;7.97;3.00;;;8.80;1.00;;;;;;5067365;28;20193;-80
2023/01/05 06:48:11;;;;;;;10.70;2.63;;;8.80;1.00;;;;;;5068450;28;20224;-80
2023/01/05 06:50:37;;;;;;;9.70;2.30;;;10.40;1.00;;;;;;5066851;28;20186;-80
2023/01/05 06:53:03;;;;;;;9.43;2.90;;;10.40;1.00;;;;;;5067315;28;20189;-80
2023/01/05 06:55:28;;;;;;;11.03;3.00;;;8.70;1.00;;;;;;5066945;28;20197;-80
2023/01/05 06:57:54;;;;;;;12.37;2.77;;;8.70;1.00;;;;;;5065853;28;20220;-79
2023/01/05 07:00:20;;;;;;;9.63;2.83;;;8.70;1.00;;;;;;5066169;28;20182;-79
2023/01/05 07:02:46;;;;;;;8.17;3.13;;;8.70;1.00;;;;;;5068370;28;20170;-81
2023/01/05 07:05:11;;;;;;;9.47;2.50;;;8.70;1.00;;;;;;5066199;28;20178;-80
2023/01/05 07:07:37;;;;;;;10.03;2.70;;;8.70;1.00;;;;;;5066021;28;20708;-80
2023/01/05 07:10:04;;;;;;;12.40;2.70;;;8.70;1.00;;;;;;5083674;28;20174;-79
2023/01/05 07:12:29;;;;;;;6.23;2.20;;;8.70;1.00;;;;;;5066979;28;20591;-80
2023/01/05 07:14:55;;;;;;;6.27;2.57;;;8.60;36.50;;;;;;5067092;28;20231;-80
2023/01/05 07:17:20;;;;;;;8.70;2.87;;;8.60;57.40;;;;;;5067017;28;20615;-80
2023/01/05 07:19:46;;;;;;;10.90;3.47;;;8.60;99.90;;;;;;5067409;28;20196;-79
2023/01/05 07:22:11;;;;;;;7.50;2.70;;;8.60;66.00;;;;;;5066380;28;20716;-79
2023/01/05 07:24:37;;;;;;;9.10;2.53;;;8.50;99.90;;;;;;5065643;28;20185;-80
2023/01/05 07:27:03;;;;;;;7.93;2.73;;;8.60;1.00;;;;;;5065438;28;20211;-80
2023/01/05 07:29:28;;;;;;;8.60;2.20;;;8.60;1.00;;;;;;5066548;28;20608;-81
2023/01/05 07:31:54;;;;;;;11.80;2.50;;;8.70;1.00;;;;;;5065888;28;20247;-81
2023/01/05 07:34:21;;;;;;;8.97;2.93;;;8.70;1.00;;;;;;5064696;28;20650;-81
2023/01/05 07:36:47;;;;;;;7.17;2.27;;;8.60;10.40;;;;;;5064147;28;20620;-80
2023/01/05 07:39:13;;;;;;;7.23;2.80;;;8.60;77.60;;;;;;5066542;28;20178;-81
2023/01/05 07:41:38;;;;;;;8.13;2.33;;;8.60;99.90;;;;;;5064277;28;20686;-81
2023/01/05 07:44:04;;;;;;;9.90;2.60;;;8.50;99.90;;;;;;5065653;28;20217;-80
2023/01/05 07:46:30;;;;;;;8.70;2.60;;;8.70;99.90;;;;;;5063786;28;20204;-82
2023/01/05 07:48:56;;;;;;;10.40;2.53;;;8.60;99.90;;;;;;5062916;28;20303;-80
2023/01/05 07:51:22;;;;;;;7.90;2.23;;;8.60;1.90;;;;;;5062175;28;20242;-80
2023/01/05 07:53:47;;;;;;;8.80;1.83;;;8.70;1.00;;;;;;5064927;28;20200;-81
2023/01/05 07:56:13;;;;;;;5.77;2.00;;;8.70;51.20;;;;;;5064252;28;20242;-81
2023/01/05 07:58:39;;;;;;;8.80;2.27;;;8.70;1.00;;;;;;5062518;28;20209;-80
2023/01/05 08:01:07;;;;;;;10.87;2.47;;;8.70;1.00;;;;;;5067965;28;20294;-81
2023/01/05 08:03:33;;;;;;;9.80;2.73;;;8.80;1.00;;;;;;5067155;28;20192;-81
2023/01/05 08:06:03;;;;;;;7.50;2.30;;;8.70;1.00;;;;;;5064531;28;20186;-81
2023/01/05 08:08:29;;;;;;;6.37;2.43;;;8.80;1.00;;;;;;5064166;28;21286;-81
2023/01/05 08:10:55;;;;;;;9.83;2.23;;;8.70;1.00;;;;;;5065943;28;20201;-81
2023/01/05 08:16:05;;;;;;;9.23;2.43;;;8.70;1.00;;;;;;5066220;28;20196;-81
2023/01/05 08:18:30;;;;;;;8.90;3.13;;;8.70;1.00;;;;;;5082201;28;20583;-82
2023/01/05 08:20:58;;;;;;;7.53;2.17;;;8.70;1.00;;;;;;5065703;28;20615;-81
2023/01/05 08:23:25;;;;;;;8.60;2.13;;;8.80;1.00;;;;;;5074862;28;20636;-82
2023/01/05 08:25:51;;;;;;;7.43;1.93;;;8.70;1.00;;;;;;5066381;28;20196;-81
2023/01/05 08:28:17;;;;;;;10.20;2.40;;;8.90;1.00;;;;;;5066347;28;20299;-82
2023/01/05 08:30:43;;;;;;;8.87;2.40;;;9.20;1.00;;;;;;5066395;28;20273;-81
2023/01/05 08:33:09;;;;;;;8.33;1.90;;;8.80;1.00;;;;;;5061457;28;20623;-84
2023/01/05 08:35:39;;;;;;;7.33;2.27;;;8.80;1.00;;;;;;5056559;28;20189;-82
2023/01/05 08:38:05;;;;;;;8.70;2.60;;;8.80;1.00;;;;;;5061043;28;20236;-81
2023/01/05 08:40:30;;;;;;;9.10;2.27;;;8.70;1.00;;;;;;5061255;28;20823;-82
2023/01/05 08:42:56;;;;;;;8.83;2.43;;;10.30;1.00;;;;;;5063272;28;20300;-82
2023/01/05 08:45:22;;;;;;;8.97;2.83;;;8.70;1.00;;;;;;5063588;28;20193;-84
2023/01/05 08:47:48;;;;;;;7.83;1.73;;;8.70;1.00;;;;;;5062997;28;20205;-81
2023/01/05 08:50:13;;;;;;;5.23;1.90;;;8.80;1.00;;;;;;5061229;28;20398;-81
2023/01/05 08:52:39;;;;;;;8.17;2.10;;;8.80;1.00;;;;;;5061829;28;20198;-82
2023/01/05 08:55:06;;;;;;;6.70;2.10;;;8.90;1.00;;;;;;5059483;28;20185;-82
2023/01/05 08:57:32;;;;;;;7.67;2.47;;;8.90;1.00;;;;;;5059929;28;20688;-82
2023/01/05 08:59:58;;;;;;;8.13;2.30;;;9.00;1.00;;;;;;5062037;28;20257;-82
2023/01/05 09:02:24;;;;;;;10.17;2.60;;;9.00;99.90;;;;;;5063672;28;20217;-82
2023/01/05 09:04:49;;;;;;;6.87;2.00;;;9.00;99.90;;;;;;5062619;28;20207;-81
2023/01/05 09:07:15;;;;;;;7.87;2.20;;;9.00;99.90;;;;;;5063364;28;20482;-79
2023/01/05 09:09:40;;;;;;;5.63;1.97;;;9.00;99.90;;;;;;5065384;28;20315;-80
2023/01/05 09:12:06;;;;;;;6.87;2.43;;;11.30;99.90;;;;;;5063312;28;20234;-82
2023/01/05 09:14:32;;;;;;;6.87;2.23;;;9.10;99.90;;;;;;5063045;28;20186;-82
2023/01/05 09:16:58;;;;;;;7.90;2.93;;;11.30;99.90;;;;;;5061392;28;21324;-84
2023/01/05 09:19:23;;;;;;;10.07;2.60;;;9.10;99.90;;;;;;5064683;28;20224;-82
2023/01/05 09:21:49;;;;;;;7.67;2.10;;;9.10;99.90;;;;;;5066090;28;20581;-81
2023/01/05 09:24:14;;;;;;;9.13;2.60;;;9.20;99.90;;;;;;5064189;28;20200;-80
2023/01/05 09:26:41;;;;;;;9.57;2.33;;;9.20;99.90;;;;;;5061956;28;20204;-80
2023/01/05 09:29:07;;;;;;;10.57;2.77;;;9.20;99.90;;;;;;5059151;28;20938;-80
2023/01/05 09:31:33;;;;;;;9.10;2.53;;;9.10;99.90;;;;;;5062436;28;20358;-81
2023/01/05 09:33:59;;;;;;;8.17;2.07;;;9.20;99.90;;;;;;5063290;28;20257;-80
2023/01/05 09:36:25;;;;;;;6.67;2.23;;;9.20;99.90;;;;;;5065963;28;20206;-86
2023/01/05 09:38:52;;;;;;;6.73;2.43;;;9.10;99.90;;;;;;5059702;28;20220;-84
2023/01/05 09:41:27;;;;;;;7.77;2.60;;;9.10;99.90;;;;;;5060168;28;20433;-84
2023/01/05 09:43:57;;;;;;;4.83;2.13;;;9.20;99.90;;;;;;5063304;28;20184;-84
2023/01/05 09:46:28;;;;;;;7.27;1.80;;;9.20;99.90;;;;;;5060702;28;20201;-84
2023/01/05 09:48:57;;;;;;;11.57;2.97;;;9.20;99.90;;;;;;5061765;28;20593;-84
2023/01/05 09:51:23;;;;;;;9.03;2.50;;;9.10;99.90;;;;;;5062054;28;20185;-84
2023/01/05 09:53:49;;;;;;;7.87;2.40;;;9.10;99.90;;;;;;5065266;28;20304;-84
2023/01/05 09:56:36;;;;;;;11.37;4.83;;;9.10;99.90;;;;;;5068750;28;20272;-80
2023/01/05 09:59:13;;;;;;;7.97;2.60;;;9.00;99.90;;;;;;5069490;28;20686;-82
2023/01/05 10:01:40;;;;;;;8.87;3.03;;;9.10;99.90;;;;;;5068262;28;20169;-81
2023/01/05 10:04:14;;;;;;;8.90;2.63;;;9.10;1.00;;;;;;5067496;28;20178;-81
2023/01/05 10:06:44;;;;;;;7.50;2.50;;;9.10;99.90;;;;;;5068403;28;20911;-81
2023/01/05 10:09:17;;;;;;;8.80;2.70;;;9.10;1.00;;;;;;5069378;28;20182;-82
2023/01/05 10:14:49;;;;;;;9.77;2.37;;;9.10;1.00;;;;;;5069409;28;20187;-81
2023/01/05 10:17:20;;;;;;;9.97;2.77;;;9.20;99.90;;;;;;5066306;28;20232;-82
2023/01/05 10:19:46;;;;;;;7.53;3.00;;;9.30;99.90;;;;;;5067735;28;20182;-82
2023/01/05 10:22:30;;;;;;;8.50;2.40;;;9.30;99.90;;;;;;5067350;28;20177;-81
2023/01/05 10:25:04;;;;;;;6.07;2.20;;;10.10;99.90;;;;;;5067524;28;20647;-82
2023/01/05 10:27:47;;;;;;;9.83;3.20;;;9.30;99.90;;;;;;5066167;28;20204;-83
2023/01/05 10:30:37;;;;;;;12.53;3.60;;;10.20;99.90;;;;;;5065367;28;20182;-82
2023/01/05 10:33:15;;;;;;;9.83;2.50;;;9.40;99.90;;;;;;5080407;28;20217;-83
2023/01/05 10:35:49;;;;;;;8.33;2.37;;;9.40;99.90;;;;;;5062840;28;20637;-82
2023/01/05 10:38:43;;;;;;;7.47;2.33;;;9.50;99.90;;;;;;5065884;28;20208;-82
2023/01/05 10:41:28;;;;;;;8.93;2.43;;;9.50;99.90;;;;;;5081265;28;20174;-82
2023/01/05 10:44:16;;;;;;;7.27;2.47;;;9.50;99.90;;;;;;5065969;28;20246;-83
2023/01/05 10:46:46;;;;;;;6.87;2.10;;;9.50;99.90;;;;;;5063940;28;20230;-82
2023/01/05 10:49:30;;;;;;;5.00;2.07;;;9.50;99.90;;;;;;5064719;28;20181;-82
2023/01/05 10:51:58;;;;;;;5.33;1.93;;;9.50;99.90;;;;;;5067013;28;20174;-83
2023/01/05 10:54:29;;;;;;;2.17;0.73;;;9.40;99.90;;;;;;5066434;28;20185;-83
2023/01/05 10:59:26;;;;;;;2.27;1.47;;;8.60;99.90;;;;;;5003961;28;20239;-81
2023/01/05 11:01:51;;;;;;;2.30;0.70;;;8.20;99.90;;;;;;5004600;28;20179;-80
2023/01/05 11:04:19;;;;;;;0.80;0.60;;;8.00;99.90;;;;;;5004462;28;20187;-81
2023/01/05 11:06:46;;;;;;;2.33;0.60;;;7.80;1.00;;;;;;5000300;28;20704;-82
2023/01/05 11:09:12;;;;;;;0.87;0.80;;;7.60;1.00;;;;;;4986527;28;20197;-80
2023/01/05 11:11:38;;;;;;;2.73;1.40;;;7.50;1.00;;;;;;4986160;28;20188;-82
2023/01/05 11:14:04;;;;;;;3.27;1.20;;;7.50;99.90;;;;;;4978540;28;20182;-81
2023/01/05 11:16:33;;;;;;;1.77;0.67;;;7.60;99.90;;;;;;4984520;28;20204;-82
2023/01/05 11:19:11;;;;;;;1.17;1.00;;;7.50;99.90;;;;;;4984197;28;20575;-80
2023/01/05 11:21:38;;;;;;;1.53;1.10;;;7.50;99.90;;;;;;4985906;28;20194;-82
2023/01/05 11:24:24;;;;;;;1.20;1.10;;;7.50;1.00;;;;;;4983661;28;20239;-81
2023/01/05 11:27:14;;;;;;;2.60;1.47;;;7.40;1.00;;;;;;4985609;28;20727;-81
2023/01/05 11:29:39;;;;;;;2.13;0.60;;;7.40;1.00;;;;;;4973190;28;20203;-80
2023/01/05 11:32:11;;;;;;;2.70;0.90;;;7.50;1.00;;;;;;4984958;28;20191;-82
2023/01/05 11:34:45;;;;;;;3.20;1.53;;;7.50;1.00;;;;;;4987208;28;20961;-81
2023/01/05 11:37:10;;;;;;;2.97;2.50;;;7.60;1.00;;;;;;4985176;28;20821;-82
2023/01/05 11:39:45;;;;;;;1.77;1.53;;;7.60;1.00;;;;;;4986177;28;20211;-79
2023/01/05 11:42:16;;;;;;;2.20;1.63;;;7.60;1.00;;;;;;4984902;28;20189;-80
2023/01/05 11:44:54;;;;;;;1.57;1.10;;;7.60;99.90;;;;;;4987396;28;20172;-80
2023/01/05 11:47:25;;;;;;;1.63;1.00;;;7.70;99.90;;;;;;4985526;28;20740;-81
2023/01/05 11:50:13;;;;;;;2.17;0.83;;;7.80;99.90;;;;;;4984234;28;20239;-80
2023/01/05 11:52:40;;;;;;;2.93;0.70;;;7.80;99.90;;;;;;4986426;28;20643;-82
2023/01/05 11:55:29;;;;;;;1.80;0.83;;;9.10;99.90;;;;;;4985634;28;20227;-80
2023/01/05 11:58:18;;;;;;;1.97;0.80;;;7.80;99.90;;;;;;4986286;28;20239;-80
2023/01/05 12:01:22;;;;;;;1.00;0.80;;;7.90;99.90;;;;;;4986691;28;20196;-80
2023/01/05 12:04:21;;;;;;;1.80;0.80;;;7.90;1.00;;;;;;4985453;28;20642;-79
2023/01/05 12:07:03;;;;;;;3.03;1.00;;;7.90;1.00;;;;;;4985265;28;20287;-81
2023/01/05 12:09:35;;;;;;;1.47;0.70;;;7.90;1.00;;;;;;4984231;28;20172;-83
2023/01/05 12:12:09;;;;;;;1.90;0.50;;;8.00;1.00;;;;;;4985129;28;20180;-81
2023/01/05 12:14:51;;;;;;;0.40;0.40;;;8.00;1.00;;;;;;4983019;28;20183;-80
2023/01/05 12:17:42;;;;;;;1.60;0.60;;;7.90;99.90;;;;;;4983857;28;20212;-81
2023/01/05 12:20:27;;;;;;;1.50;0.60;;;7.90;1.00;;;;;;4953546;28;20223;-83
2023/01/05 12:23:16;;;;;;;2.03;0.70;;;8.00;1.00;;;;;;4980018;28;20172;-80
2023/01/05 12:26:06;;;;;;;2.00;1.37;;;8.00;99.90;;;;;;4981892;28;20180;-83
2023/01/05 12:28:48;;;;;;;1.30;0.50;;;8.10;99.90;;;;;;4979777;28;20546;-81
2023/01/05 12:31:24;;;;;;;1.63;0.50;;;8.10;1.00;;;;;;4980198;28;20558;-80
2023/01/05 12:34:02;;;;;;;0.63;0.50;;;8.00;1.00;;;;;;4982262;28;20184;-82
2023/01/05 12:36:43;;;;;;;1.27;0.50;;;8.00;99.90;;;;;;4981563;28;20199;-80
2023/01/05 12:39:17;;;;;;;1.20;0.60;;;8.00;99.90;;;;;;4981069;28;20208;-80
2023/01/05 12:41:57;;;;;;;1.33;0.43;;;7.90;99.90;;;;;;4981100;28;20203;-81
2023/01/05 12:44:54;;;;;;;1.37;0.50;;;7.90;99.90;;;;;;4983154;28;20231;-80
2023/01/05 12:47:23;;;;;;;1.10;0.73;;;7.90;99.90;;;;;;4974648;28;20812;-80
2023/01/05 12:50:01;;;;;;;2.50;0.87;;;7.90;99.90;;;;;;4980510;28;20290;-81
2023/01/05 12:52:32;;;;;;;2.90;0.60;;;7.90;99.90;;;;;;4979285;28;20202;-79
2023/01/05 12:55:04;;;;;;;3.90;1.10;;;8.00;99.90;;;;;;4979247;28;20184;-80
2023/01/05 12:57:41;;;;;;;1.70;0.53;;;7.90;99.90;;;;;;4978176;28;20227;-79
2023/01/05 13:00:12;;;;;;;1.63;0.67;;;7.90;99.90;;;;;;4980053;28;20424;-82
2023/01/05 13:02:43;;;;;;;2.77;0.90;;;7.90;99.90;;;;;;4979649;28;20184;-79
2023/01/05 13:05:39;;;;;;;3.37;0.93;;;7.80;99.90;;;;;;4979163;28;20181;-80
2023/01/05 13:08:16;;;;;;;1.60;1.07;;;7.80;99.90;;;;;;4985236;28;20204;-79
2023/01/05 13:10:52;;;;;;;5.67;1.20;;;7.80;1.00;;;;;;4989838;28;20227;-81
2023/01/05 13:13:26;;;;;;;0.97;0.70;;;7.70;1.00;;;;;;4988040;28;20195;-80
2023/01/05 13:16:03;;;;;;;3.50;1.27;;;7.80;1.00;;;;;;5002846;28;20184;-79
2023/01/05 13:18:30;;;;;;;3.73;0.70;;;7.70;1.00;;;;;;4988436;28;20569;-79
2023/01/05 13:21:02;;;;;;;2.97;1.10;;;7.80;1.00;;;;;;4988108;28;20534;-81
2023/01/05 13:23:32;;;;;;;2.30;1.30;;;7.80;1.00;;;;;;4988308;28;20923;-80
2023/01/05 13:26:09;;;;;;;1.50;0.83;;;7.80;1.00;;;;;;5002905;28;20181;-80
2023/01/05 13:28:35;;;;;;;2.53;1.00;;;7.70;1.00;;;;;;4988558;28;20219;-80
2023/01/05 13:31:19;;;;;;;3.90;2.53;;;7.60;1.00;;;;;;4986954;28;20188;-79
2023/01/05 13:33:51;;;;;;;3.23;1.67;;;7.80;1.00;;;;;;4987075;28;20176;-79
2023/01/05 13:36:41;;;;;;;3.77;2.73;;;7.80;1.00;;;;;;4986145;28;20552;-80
2023/01/05 13:39:11;;;;;;;3.00;2.10;;;7.80;1.00;;;;;;4988916;28;20172;-80
2023/01/05 13:42:02;;;;;;;5.00;2.43;;;7.80;1.00;;;;;;4986567;28;20199;-79
2023/01/05 13:44:37;;;;;;;4.03;2.20;;;7.90;1.00;;;;;;4960871;28;20189;-80
2023/01/05 13:47:21;;;;;;;8.07;4.17;;;8.00;1.00;;;;;;4986568;28;20207;-80
2023/01/05 13:50:15;;;;;;;2.27;1.47;;;7.90;1.00;;;;;;4987006;28;20188;-81
2023/01/05 13:52:56;;;;;;;4.70;2.00;;;7.90;1.00;;;;;;4986671;28;20267;-80